createdAt,value
2022-12-23T00:01:02.705Z,29.75
2022-12-23T00:03:30.742Z,29.08
2022-12-23T00:05:58.213Z,29.50
2022-12-23T00:08:26.058Z,27.02
2022-12-23T00:10:56.236Z,28.05
2022-12-23T00:13:41.668Z,26.85
2022-12-23T00:16:13.814Z,24.88
2022-12-23T00:18:41.748Z,26.27
2022-12-23T00:21:12.017Z,25.05
2022-12-23T00:23:41.430Z,27.90
2022-12-23T00:26:13.754Z,27.77
2022-12-23T00:28:40.699Z,27.30
2022-12-23T00:31:08.257Z,30.05
2022-12-23T00:33:43.074Z,29.60
2022-12-23T00:36:19.289Z,27.55
2022-12-23T00:39:05.031Z,28.92
2022-12-23T00:41:50.823Z,31.08
2022-12-23T00:44:17.774Z,29.55
2022-12-23T00:46:44.831Z,29.42
2022-12-23T00:49:32.312Z,29.92
2022-12-23T00:51:59.874Z,28.60
2022-12-23T00:54:26.966Z,29.75
2022-12-23T00:56:54.834Z,30.33
2022-12-23T00:59:21.792Z,29.25
2022-12-23T01:02:07.697Z,31.33
2022-12-23T01:04:53.976Z,29.67
2022-12-23T01:07:22.272Z,30.75
2022-12-23T01:09:49.220Z,31.63
2022-12-23T01:12:16.196Z,31.25
2022-12-23T01:14:43.166Z,31.70
2022-12-23T01:17:10.171Z,30.75
2022-12-23T01:19:37.278Z,30.33
2022-12-23T01:22:04.205Z,31.13
2022-12-23T01:24:33.721Z,32.58
2022-12-23T01:27:00.987Z,31.73
2022-12-23T01:29:28.995Z,33.03
2022-12-23T01:31:56.073Z,32.10
2022-12-23T01:34:23.144Z,33.28
2022-12-23T01:36:50.199Z,33.30
2022-12-23T01:39:17.197Z,33.08
2022-12-23T01:42:03.126Z,33.92
2022-12-23T01:45:02.378Z,34.45
2022-12-23T01:47:34.951Z,33.28
2022-12-23T01:50:14.770Z,30.58
2022-12-23T01:53:06.948Z,32.92
2022-12-23T01:56:01.192Z,36.40
2022-12-23T01:58:51.334Z,33.35
2022-12-23T02:01:37.746Z,35.08
2022-12-23T02:04:08.108Z,34.88
2022-12-23T02:06:58.170Z,34.38
2022-12-23T02:09:37.065Z,35.42
2022-12-23T02:12:07.068Z,35.05
2022-12-23T02:15:02.344Z,36.25
2022-12-23T02:17:48.114Z,36.65
2022-12-23T02:20:32.748Z,38.05
2022-12-23T02:23:05.463Z,40.45
2022-12-23T02:25:47.111Z,42.88
2022-12-23T02:28:32.887Z,40.40
2022-12-23T02:31:20.121Z,39.80
2022-12-23T02:34:02.014Z,41.40
2022-12-23T02:36:52.214Z,41.25
2022-12-23T02:39:30.877Z,39.42
2022-12-23T02:42:04.065Z,39.47
2022-12-23T02:44:37.923Z,36.88
2022-12-23T02:47:11.162Z,33.78
2022-12-23T02:49:43.044Z,34.47
2022-12-23T02:52:15.523Z,33.85
2022-12-23T02:54:47.002Z,37.10
2022-12-23T02:57:18.061Z,35.75
2022-12-23T02:59:49.113Z,37.63
2022-12-23T03:02:16.431Z,34.15
2022-12-23T03:04:43.532Z,33.97
2022-12-23T03:07:26.652Z,34.83
2022-12-23T03:10:18.710Z,34.70
2022-12-23T03:13:08.645Z,32.28
2022-12-23T03:16:04.649Z,32.60
2022-12-23T03:18:53.419Z,32.80
2022-12-23T03:21:35.788Z,33.75
2022-12-23T03:24:35.413Z,33.30
2022-12-23T03:27:10.338Z,29.30
2022-12-23T03:30:05.904Z,27.17
2022-12-23T03:32:39.111Z,25.80
2022-12-23T03:35:09.639Z,25.33
2022-12-23T03:37:41.114Z,24.20
2022-12-23T03:40:41.668Z,23.55
2022-12-23T03:43:19.853Z,24.27
2022-12-23T03:45:58.677Z,22.33
2022-12-23T03:48:58.346Z,24.40
2022-12-23T03:51:38.449Z,23.17
2022-12-23T03:54:12.007Z,22.90
2022-12-23T03:56:43.072Z,24.00
2022-12-23T03:59:24.247Z,24.40
2022-12-23T04:02:36.971Z,22.75
2022-12-23T04:05:03.925Z,24.10
2022-12-23T04:07:46.012Z,22.80
2022-12-23T04:10:13.758Z,23.88
2022-12-23T04:12:40.985Z,25.15
2022-12-23T04:15:12.876Z,25.17
2022-12-23T04:17:40.203Z,25.05
2022-12-23T04:20:07.879Z,27.50
2022-12-23T04:22:34.826Z,24.88
2022-12-23T04:25:01.767Z,24.13
2022-12-23T04:27:28.680Z,25.38
2022-12-23T04:29:55.582Z,26.30
2022-12-23T04:32:22.582Z,26.25
2022-12-23T04:34:49.472Z,25.35
2022-12-23T04:37:16.397Z,26.75
2022-12-23T04:39:43.289Z,25.13
2022-12-23T04:42:10.262Z,25.98
2022-12-23T04:44:37.181Z,26.05
2022-12-23T04:47:04.216Z,28.08
2022-12-23T04:49:31.879Z,28.75
2022-12-23T04:51:59.121Z,26.98
2022-12-23T04:54:26.127Z,28.88
2022-12-23T04:56:53.208Z,27.33
2022-12-23T04:59:20.139Z,27.23
2022-12-23T05:01:47.387Z,25.92
2022-12-23T05:04:14.595Z,28.05
2022-12-23T05:06:41.555Z,25.77
2022-12-23T05:09:08.726Z,27.25
2022-12-23T05:11:41.885Z,28.13
2022-12-23T05:14:13.058Z,27.80
2022-12-23T05:16:40.127Z,28.52
2022-12-23T05:19:07.342Z,30.60
2022-12-23T05:21:34.352Z,30.90
2022-12-23T05:24:01.283Z,30.27
2022-12-23T05:26:28.212Z,29.67
2022-12-23T05:28:55.772Z,29.88
2022-12-23T05:31:22.965Z,30.23
2022-12-23T05:33:50.192Z,55.97
2022-12-23T05:36:17.199Z,31.65
2022-12-23T05:38:44.108Z,33.30
2022-12-23T05:41:11.136Z,30.63
2022-12-23T05:43:38.081Z,30.77
2022-12-23T05:46:05.235Z,31.05
2022-12-23T05:48:32.277Z,31.38
2022-12-23T05:50:59.257Z,42.58
2022-12-23T05:53:26.685Z,35.40
2022-12-23T05:55:53.657Z,32.50
2022-12-23T05:58:20.657Z,32.28
2022-12-23T06:00:47.525Z,31.50
2022-12-23T06:03:14.656Z,31.15
2022-12-23T06:05:43.612Z,33.33
2022-12-23T06:08:10.613Z,32.55
2022-12-23T06:10:37.587Z,35.28
2022-12-23T06:13:04.566Z,34.95
2022-12-23T06:15:31.570Z,36.40
2022-12-23T06:17:58.481Z,37.97
2022-12-23T06:20:25.426Z,37.42
2022-12-23T06:22:52.406Z,40.13
2022-12-23T06:25:19.405Z,38.35
2022-12-23T06:27:46.571Z,40.10
2022-12-23T06:30:14.191Z,38.08
2022-12-23T06:32:41.261Z,39.53
2022-12-23T06:35:09.002Z,41.50
2022-12-23T06:37:36.023Z,42.35
2022-12-23T06:40:03.003Z,44.25
2022-12-23T06:42:29.949Z,42.58
2022-12-23T06:44:56.900Z,44.28
2022-12-23T06:47:23.821Z,43.95
2022-12-23T06:49:50.942Z,47.22
2022-12-23T06:52:18.002Z,47.10
2022-12-23T06:54:44.944Z,46.35
2022-12-23T06:57:11.889Z,48.13
2022-12-23T06:59:38.799Z,48.53
2022-12-23T07:02:06.639Z,46.88
2022-12-23T07:04:33.665Z,48.95
2022-12-23T07:07:00.613Z,47.33
2022-12-23T07:09:27.900Z,50.95
2022-12-23T07:11:54.822Z,49.63
2022-12-23T07:14:21.808Z,49.65
2022-12-23T07:16:48.844Z,48.80
2022-12-23T07:19:15.817Z,49.35
2022-12-23T07:21:42.676Z,50.17
2022-12-23T07:24:09.788Z,49.75
2022-12-23T07:26:36.739Z,47.67
2022-12-23T07:29:04.685Z,46.42
2022-12-23T07:31:31.747Z,49.25
2022-12-23T07:33:58.748Z,49.20
2022-12-23T07:36:25.660Z,49.70
2022-12-23T07:38:52.687Z,47.75
2022-12-23T07:41:19.848Z,47.67
2022-12-23T07:43:47.228Z,49.15
2022-12-23T07:46:14.292Z,47.78
2022-12-23T07:48:44.025Z,48.95
2022-12-23T07:51:11.032Z,46.58
2022-12-23T07:53:38.043Z,47.45
2022-12-23T07:56:06.717Z,48.70
2022-12-23T07:58:33.654Z,45.97
2022-12-23T08:01:09.562Z,48.58
2022-12-23T08:03:37.543Z,46.13
2022-12-23T08:06:12.356Z,46.10
2022-12-23T08:08:40.428Z,47.05
2022-12-23T08:11:09.532Z,46.15
2022-12-23T08:13:38.890Z,46.70
2022-12-23T08:16:07.056Z,49.15
2022-12-23T08:18:37.207Z,49.55
2022-12-23T08:21:06.706Z,48.53
2022-12-23T08:23:34.543Z,50.53
2022-12-23T08:26:12.964Z,47.67
2022-12-23T08:28:41.692Z,44.83
2022-12-23T08:31:11.926Z,47.55
2022-12-23T08:33:40.668Z,50.15
2022-12-23T08:36:09.698Z,47.42
2022-12-23T08:38:37.334Z,48.13
2022-12-23T08:41:08.523Z,46.03
2022-12-23T08:43:36.117Z,43.58
2022-12-23T08:46:04.272Z,44.28
2022-12-23T08:48:32.089Z,43.35
2022-12-23T08:51:05.242Z,43.10
2022-12-23T08:53:33.672Z,41.78
2022-12-23T08:56:12.804Z,40.33
2022-12-23T08:58:42.768Z,38.83
2022-12-23T09:01:11.458Z,41.88
2022-12-23T09:03:39.669Z,40.30
2022-12-23T09:06:09.840Z,39.30
2022-12-23T09:08:37.387Z,37.22
2022-12-23T09:11:04.955Z,37.67
2022-12-23T09:13:35.817Z,35.60
2022-12-23T09:16:04.116Z,33.53
2022-12-23T09:18:32.118Z,33.03
2022-12-23T09:21:01.100Z,32.83
2022-12-23T09:23:28.092Z,33.72
2022-12-23T09:25:55.479Z,31.75
2022-12-23T09:28:23.726Z,32.33
2022-12-23T09:30:51.295Z,32.47
2022-12-23T09:33:19.822Z,33.20
2022-12-23T09:35:46.855Z,32.47
2022-12-23T09:38:13.807Z,32.72
2022-12-23T09:40:42.437Z,32.47
2022-12-23T09:43:33.540Z,31.98
2022-12-23T09:46:16.205Z,33.00
2022-12-23T09:48:48.890Z,31.77
2022-12-23T09:51:20.501Z,31.60
2022-12-23T09:54:05.710Z,32.25
2022-12-23T09:56:51.923Z,32.97
2022-12-23T09:59:33.908Z,31.95
2022-12-23T10:02:23.632Z,33.30
2022-12-23T10:05:13.496Z,34.20
2022-12-23T10:07:45.644Z,31.95
2022-12-23T10:10:42.326Z,32.30
2022-12-23T10:13:27.851Z,35.35
2022-12-23T10:15:58.005Z,36.00
2022-12-23T10:18:35.498Z,33.80
2022-12-23T10:21:14.581Z,34.58
2022-12-23T10:23:46.455Z,34.17
2022-12-23T10:26:41.592Z,35.28
2022-12-23T10:29:19.798Z,35.00
2022-12-23T10:32:15.522Z,34.05
2022-12-23T10:35:01.356Z,34.38
2022-12-23T10:37:40.566Z,34.60
2022-12-23T10:40:29.520Z,33.70
2022-12-23T10:43:08.425Z,35.10
2022-12-23T10:46:01.818Z,34.85
2022-12-23T10:48:56.203Z,35.97
2022-12-23T10:54:03.915Z,33.47
2022-12-23T10:56:31.697Z,34.60
2022-12-23T10:59:01.362Z,33.53
2022-12-23T11:01:32.255Z,33.60
2022-12-23T11:04:14.923Z,32.50
2022-12-23T11:06:46.768Z,35.38
2022-12-23T11:09:20.926Z,35.15
2022-12-23T11:12:06.445Z,35.97
2022-12-23T11:14:42.908Z,35.63
2022-12-23T11:17:22.270Z,34.65
2022-12-23T11:20:05.832Z,42.33
2022-12-23T11:22:32.840Z,34.97
2022-12-23T11:25:27.693Z,33.72
2022-12-23T11:28:02.443Z,34.15
2022-12-23T11:30:31.830Z,36.13
2022-12-23T11:32:59.157Z,35.60
2022-12-23T11:35:36.783Z,32.47
2022-12-23T11:38:04.341Z,34.83
2022-12-23T11:40:38.042Z,34.03
2022-12-23T11:43:15.925Z,33.17
2022-12-23T11:45:42.900Z,36.85
2022-12-23T11:48:34.354Z,36.70
2022-12-23T11:51:03.428Z,36.72
2022-12-23T11:53:31.425Z,36.88
2022-12-23T11:56:15.558Z,34.92
2022-12-23T11:58:54.056Z,37.45
2022-12-23T12:01:24.107Z,34.00
2022-12-23T12:03:59.362Z,39.88
2022-12-23T12:06:27.755Z,36.65
2022-12-23T12:08:58.300Z,37.72
2022-12-23T12:11:33.459Z,34.40
2022-12-23T12:14:04.418Z,33.38
2022-12-23T12:16:31.473Z,33.67
2022-12-23T12:19:19.380Z,37.42
2022-12-23T12:21:49.351Z,34.25
2022-12-23T12:24:25.241Z,33.85
2022-12-23T12:26:57.540Z,32.40
2022-12-23T12:29:45.866Z,29.83
2022-12-23T12:32:47.097Z,28.55
2022-12-23T12:35:43.437Z,29.30
2022-12-23T12:38:27.155Z,30.48
2022-12-23T12:41:21.756Z,29.40
2022-12-23T12:44:03.541Z,29.83
2022-12-23T12:46:42.521Z,29.88
2022-12-23T12:49:41.087Z,28.67
2022-12-23T12:52:22.122Z,30.70
2022-12-23T12:54:54.845Z,29.52
2022-12-23T12:57:23.345Z,30.13
2022-12-23T13:00:05.594Z,29.50
2022-12-23T13:03:01.343Z,30.17
2022-12-23T13:05:55.082Z,29.85
2022-12-23T13:08:33.939Z,29.05
2022-12-23T13:11:14.780Z,29.92
2022-12-23T13:14:18.622Z,29.90
2022-12-23T13:17:08.378Z,28.05
2022-12-23T13:19:53.218Z,31.48
2022-12-23T13:22:33.829Z,29.55
2022-12-23T13:25:29.972Z,30.02
2022-12-23T13:28:18.124Z,28.80
2022-12-23T13:30:57.700Z,31.45
2022-12-23T13:33:45.169Z,31.67
2022-12-23T13:36:14.903Z,30.38
2022-12-23T13:39:24.191Z,30.63
2022-12-23T13:41:58.596Z,30.27
2022-12-23T13:44:30.375Z,30.70
2022-12-23T13:47:18.625Z,32.53
2022-12-23T13:50:04.363Z,30.83
2022-12-23T13:52:55.966Z,29.67
2022-12-23T13:55:47.771Z,29.17
2022-12-23T13:58:18.279Z,28.48
2022-12-23T14:00:45.854Z,28.85
2022-12-23T14:03:24.714Z,27.95
2022-12-23T14:05:53.204Z,28.95
2022-12-23T14:08:20.245Z,30.58
2022-12-23T14:11:17.823Z,31.35
2022-12-23T14:13:50.842Z,28.58
2022-12-23T14:16:32.766Z,29.48
2022-12-23T14:19:08.583Z,29.58
2022-12-23T14:21:58.177Z,29.85
2022-12-23T14:24:53.326Z,29.73
2022-12-23T14:27:31.949Z,32.47
2022-12-23T14:30:06.531Z,32.15
2022-12-23T14:32:52.729Z,32.50
2022-12-23T14:35:40.099Z,32.88
2022-12-23T14:38:15.450Z,35.17
2022-12-23T14:40:42.430Z,33.53
2022-12-23T14:43:26.590Z,37.97
2022-12-23T14:45:55.851Z,35.67
2022-12-23T14:48:44.437Z,33.95
2022-12-23T14:51:14.426Z,33.25
2022-12-23T14:53:59.183Z,32.25
2022-12-23T14:56:26.118Z,34.35
2022-12-23T14:59:12.629Z,34.47
2022-12-23T15:01:50.291Z,35.58
2022-12-23T15:04:21.992Z,38.08
2022-12-23T15:06:53.353Z,38.28
2022-12-23T15:09:26.863Z,39.15
2022-12-23T15:11:56.299Z,38.40
2022-12-23T15:14:43.033Z,38.05
2022-12-23T15:17:25.471Z,40.50
2022-12-23T15:19:53.187Z,41.20
2022-12-23T15:22:26.835Z,41.97
2022-12-23T15:24:57.206Z,42.58
2022-12-23T15:27:27.923Z,42.55
2022-12-23T15:29:56.431Z,43.40
2022-12-23T15:32:25.070Z,42.08
2022-12-23T15:34:53.123Z,42.33
2022-12-23T15:37:27.610Z,47.50
2022-12-23T15:40:04.516Z,48.85
2022-12-23T15:42:35.524Z,46.00
2022-12-23T15:45:23.790Z,46.15
2022-12-23T15:47:51.099Z,42.08
2022-12-23T15:50:19.114Z,43.95
2022-12-23T15:52:49.199Z,45.40
2022-12-23T15:55:31.191Z,46.50
2022-12-23T15:57:59.982Z,45.30
2022-12-23T16:00:29.206Z,45.42
2022-12-23T16:03:01.048Z,44.80
2022-12-23T16:05:39.022Z,45.17
2022-12-23T16:08:19.336Z,42.90
2022-12-23T16:13:33.141Z,42.70
2022-12-23T16:16:37.661Z,43.88
2022-12-23T16:19:05.057Z,42.60
2022-12-23T16:21:35.413Z,43.83
2022-12-23T16:24:08.441Z,45.22
2022-12-23T16:26:45.055Z,42.60
2022-12-23T16:29:12.748Z,42.90
2022-12-23T16:31:44.312Z,42.38
2022-12-23T16:34:15.329Z,43.85
2022-12-23T16:36:42.312Z,44.60
2022-12-23T16:39:09.222Z,41.20
2022-12-23T16:41:36.457Z,41.13
2022-12-23T16:44:04.401Z,39.97
2022-12-23T16:46:36.585Z,44.03
2022-12-23T16:49:06.617Z,42.10
2022-12-23T16:51:34.270Z,41.17
2022-12-23T16:54:01.738Z,42.67
2022-12-23T16:56:34.863Z,42.67
2022-12-23T16:59:02.250Z,43.83
2022-12-23T17:01:35.036Z,44.50
2022-12-23T17:04:02.366Z,46.93
2022-12-23T17:06:29.283Z,45.53
2022-12-23T17:08:57.070Z,45.97
2022-12-23T17:11:29.017Z,49.38
2022-12-23T17:14:03.292Z,50.72
2022-12-23T17:16:31.822Z,48.30
2022-12-23T17:18:58.853Z,48.58
2022-12-23T17:21:36.753Z,44.22
2022-12-23T17:24:25.519Z,44.42
2022-12-23T17:26:53.274Z,47.45
2022-12-23T17:29:21.113Z,44.00
2022-12-23T17:31:50.108Z,43.70
2022-12-23T17:34:19.621Z,42.95
2022-12-23T17:36:50.233Z,43.08
2022-12-23T17:39:18.732Z,43.42
2022-12-23T17:41:45.937Z,44.63
2022-12-23T17:44:17.603Z,43.10
2022-12-23T17:46:46.005Z,43.92
2022-12-23T17:49:12.985Z,43.33
2022-12-23T17:51:40.500Z,44.53
2022-12-23T17:54:16.576Z,42.70
2022-12-23T17:56:43.496Z,40.65
2022-12-23T17:59:10.441Z,45.80
2022-12-23T18:01:37.959Z,43.55
2022-12-23T18:04:18.395Z,47.17
2022-12-23T18:06:45.325Z,44.13
2022-12-23T18:09:12.257Z,45.25
2022-12-23T18:11:44.834Z,42.33
2022-12-23T18:14:29.509Z,43.58
2022-12-23T18:16:56.617Z,43.00
2022-12-23T18:19:23.720Z,40.50
2022-12-23T18:21:51.700Z,42.30
2022-12-23T18:24:18.904Z,40.75
2022-12-23T18:26:46.306Z,42.42
2022-12-23T18:29:13.502Z,42.85
2022-12-23T18:31:51.229Z,40.83
2022-12-23T18:34:19.466Z,42.38
2022-12-23T18:36:48.215Z,43.40
2022-12-23T18:39:15.446Z,41.75
2022-12-23T18:41:42.370Z,39.10
2022-12-23T18:44:18.067Z,36.40
2022-12-23T18:46:46.079Z,35.33
2022-12-23T18:49:13.071Z,37.33
2022-12-23T18:51:40.049Z,36.40
2022-12-23T18:54:07.113Z,35.60
2022-12-23T18:56:34.069Z,36.40
2022-12-23T18:59:01.049Z,37.72
2022-12-23T19:01:28.119Z,38.88
2022-12-23T19:03:55.031Z,35.25
2022-12-23T19:06:22.053Z,36.15
2022-12-23T19:08:49.000Z,37.30
2022-12-23T19:11:19.024Z,36.53
2022-12-23T19:13:46.607Z,36.42
2022-12-23T19:16:15.930Z,36.70
2022-12-23T19:18:43.138Z,38.28
2022-12-23T19:21:10.306Z,38.78
2022-12-23T19:23:39.376Z,41.33
2022-12-23T19:26:06.375Z,55.35
2022-12-23T19:28:33.686Z,38.97
2022-12-23T19:31:00.766Z,41.78
2022-12-23T19:33:27.887Z,38.72
2022-12-23T19:35:55.192Z,39.05
2022-12-23T19:38:22.387Z,34.55
2022-12-23T19:40:57.589Z,37.03
2022-12-23T19:43:24.675Z,39.58
2022-12-23T19:45:59.272Z,40.97
2022-12-23T19:48:27.069Z,42.65
2022-12-23T19:51:13.982Z,37.90
2022-12-23T19:53:42.333Z,35.35
2022-12-23T19:56:13.477Z,35.55
2022-12-23T19:58:42.322Z,36.95
2022-12-23T20:01:18.217Z,36.58
2022-12-23T20:03:47.083Z,35.47
2022-12-23T20:06:19.747Z,34.33
2022-12-23T20:08:48.660Z,34.15
2022-12-23T20:11:20.700Z,34.17
2022-12-23T20:13:51.523Z,37.15
2022-12-23T20:16:18.847Z,34.53
2022-12-23T20:18:46.041Z,32.88
2022-12-23T20:21:13.340Z,32.65
2022-12-23T20:23:40.639Z,34.33
2022-12-23T20:26:07.908Z,32.42
2022-12-23T20:28:35.194Z,32.67
2022-12-23T20:31:09.480Z,38.30
2022-12-23T20:33:38.185Z,37.50
2022-12-23T20:36:10.182Z,34.67
2022-12-23T20:38:41.445Z,34.63
2022-12-23T20:41:10.077Z,34.55
2022-12-23T20:43:37.492Z,39.83
2022-12-23T20:46:06.284Z,45.47
2022-12-23T20:48:34.733Z,37.92
2022-12-23T20:51:06.447Z,35.70
2022-12-23T20:53:33.442Z,36.15
2022-12-23T20:56:01.529Z,35.58
2022-12-23T20:58:47.015Z,35.88
2022-12-23T21:01:14.175Z,34.42
2022-12-23T21:03:41.736Z,32.20
2022-12-23T21:06:09.285Z,33.95
2022-12-23T21:08:38.006Z,32.67
2022-12-23T21:11:06.201Z,34.60
2022-12-23T21:13:33.671Z,35.25
2022-12-23T21:16:05.847Z,34.42
2022-12-23T21:18:33.453Z,34.95
2022-12-23T21:21:14.382Z,33.72
2022-12-23T21:23:42.131Z,33.95
2022-12-23T21:26:40.214Z,32.97
2022-12-23T21:29:09.174Z,34.42
2022-12-23T21:31:38.343Z,34.00
2022-12-23T21:34:06.573Z,35.30
2022-12-23T21:36:36.653Z,33.83
2022-12-23T21:39:04.974Z,33.72
2022-12-23T21:41:38.754Z,33.78
2022-12-23T21:46:33.677Z,33.17
2022-12-23T21:49:00.850Z,34.15
2022-12-23T21:51:38.561Z,35.17
2022-12-23T21:54:07.315Z,34.72
2022-12-23T21:56:34.535Z,35.67
2022-12-23T21:59:05.463Z,34.33
2022-12-23T22:01:33.274Z,35.67
2022-12-23T22:04:00.247Z,36.80
2022-12-23T22:06:33.223Z,35.90
2022-12-23T22:09:00.234Z,34.13
2022-12-23T22:11:30.101Z,36.50
2022-12-23T22:13:58.629Z,34.83
2022-12-23T22:16:27.713Z,38.47
2022-12-23T22:18:55.752Z,37.08
2022-12-23T22:21:25.119Z,35.00
2022-12-23T22:23:53.498Z,35.53
2022-12-23T22:26:25.596Z,36.05
2022-12-23T22:28:58.633Z,36.30
2022-12-23T22:31:39.856Z,36.47
2022-12-23T22:34:08.035Z,35.45
2022-12-23T22:36:35.254Z,34.28
2022-12-23T22:39:02.702Z,32.67
2022-12-23T22:41:30.387Z,32.90
2022-12-23T22:43:58.322Z,33.75
2022-12-23T22:46:25.903Z,34.95
2022-12-23T22:48:53.506Z,35.40
2022-12-23T22:51:28.300Z,34.65
2022-12-23T22:53:56.579Z,33.67
2022-12-23T22:56:24.993Z,34.90
2022-12-23T22:58:53.163Z,34.90
2022-12-23T23:01:27.029Z,33.40
2022-12-23T23:03:58.775Z,34.35
2022-12-23T23:06:37.669Z,34.13
2022-12-23T23:09:07.362Z,34.35
2022-12-23T23:11:34.558Z,31.92
2022-12-23T23:14:01.744Z,31.17
2022-12-23T23:16:28.759Z,32.17
2022-12-23T23:18:55.777Z,33.83
2022-12-23T23:21:22.770Z,30.77
2022-12-23T23:23:49.967Z,32.35
2022-12-23T23:26:18.214Z,34.45
2022-12-23T23:28:45.325Z,38.38
2022-12-23T23:33:59.438Z,36.40
2022-12-23T23:36:27.276Z,39.97
2022-12-23T23:38:54.543Z,38.35
2022-12-23T23:41:23.734Z,37.42
2022-12-23T23:43:51.194Z,36.08
2022-12-23T23:46:18.503Z,36.92
2022-12-23T23:48:45.828Z,36.97
2022-12-23T23:51:13.011Z,37.90
2022-12-23T23:53:40.636Z,38.83
2022-12-23T23:56:08.367Z,40.33
2022-12-23T23:58:36.782Z,39.42
